sensor_id;sensor_type;location;lat;lon;timestamp;P1;durP1;ratioP1;P2;durP2;ratioP2
34459;SDS011;20704;51.260;22.558;2024-03-08T00:01:27;52.70;;;20.60;;
34459;SDS011;20704;51.260;22.558;2024-03-08T00:03:30;44.83;;;19.97;;
34459;SDS011;20704;51.260;22.558;2024-03-08T00:05:34;49.00;;;21.00;;
34459;SDS011;20704;51.260;22.558;2024-03-08T00:07:38;47.37;;;20.57;;
34459;SDS011;20704;51.260;22.558;2024-03-08T00:09:42;49.93;;;19.67;;
34459;SDS011;20704;51.260;22.558;2024-03-08T00:11:45;42.93;;;19.00;;
34459;SDS011;20704;51.260;22.558;2024-03-08T00:13:48;46.30;;;19.80;;
34459;SDS011;20704;51.260;22.558;2024-03-08T00:15:54;44.73;;;20.73;;
34459;SDS011;20704;51.260;22.558;2024-03-08T00:17:59;47.23;;;20.17;;
34459;SDS011;20704;51.260;22.558;2024-03-08T00:20:02;49.23;;;20.77;;
34459;SDS011;20704;51.260;22.558;2024-03-08T00:22:10;50.90;;;22.03;;
34459;SDS011;20704;51.260;22.558;2024-03-08T00:24:13;47.70;;;20.23;;
34459;SDS011;20704;51.260;22.558;2024-03-08T00:26:16;45.33;;;21.17;;
34459;SDS011;20704;51.260;22.558;2024-03-08T00:28:18;48.93;;;19.43;;
34459;SDS011;20704;51.260;22.558;2024-03-08T00:30:21;50.73;;;20.87;;
34459;SDS011;20704;51.260;22.558;2024-03-08T00:32:24;52.00;;;21.00;;
34459;SDS011;20704;51.260;22.558;2024-03-08T00:34:27;49.93;;;23.30;;
34459;SDS011;20704;51.260;22.558;2024-03-08T00:36:29;49.73;;;20.97;;
34459;SDS011;20704;51.260;22.558;2024-03-08T00:38:32;57.97;;;21.80;;
34459;SDS011;20704;51.260;22.558;2024-03-08T00:40:35;48.77;;;20.43;;
34459;SDS011;20704;51.260;22.558;2024-03-08T00:42:38;50.80;;;21.87;;
34459;SDS011;20704;51.260;22.558;2024-03-08T00:44:42;49.37;;;19.80;;
34459;SDS011;20704;51.260;22.558;2024-03-08T00:46:45;50.33;;;22.23;;
34459;SDS011;20704;51.260;22.558;2024-03-08T00:48:48;47.13;;;21.87;;
34459;SDS011;20704;51.260;22.558;2024-03-08T00:50:50;54.67;;;20.57;;
34459;SDS011;20704;51.260;22.558;2024-03-08T00:52:53;50.00;;;20.10;;
34459;SDS011;20704;51.260;22.558;2024-03-08T00:54:56;49.13;;;21.40;;
34459;SDS011;20704;51.260;22.558;2024-03-08T00:56:58;52.57;;;21.40;;
34459;SDS011;20704;51.260;22.558;2024-03-08T00:59:04;52.13;;;20.03;;
34459;SDS011;20704;51.260;22.558;2024-03-08T01:01:08;48.07;;;21.10;;
34459;SDS011;20704;51.260;22.558;2024-03-08T01:03:11;46.63;;;19.77;;
34459;SDS011;20704;51.260;22.558;2024-03-08T01:05:14;39.93;;;18.57;;
34459;SDS011;20704;51.260;22.558;2024-03-08T01:07:17;47.10;;;19.43;;
34459;SDS011;20704;51.260;22.558;2024-03-08T01:09:19;44.40;;;19.10;;
34459;SDS011;20704;51.260;22.558;2024-03-08T01:11:23;46.53;;;18.53;;
34459;SDS011;20704;51.260;22.558;2024-03-08T01:13:26;45.23;;;18.67;;
34459;SDS011;20704;51.260;22.558;2024-03-08T01:15:29;48.47;;;20.70;;
34459;SDS011;20704;51.260;22.558;2024-03-08T01:17:32;47.43;;;20.50;;
34459;SDS011;20704;51.260;22.558;2024-03-08T01:19:35;48.47;;;19.87;;
34459;SDS011;20704;51.260;22.558;2024-03-08T01:21:37;50.73;;;19.33;;
34459;SDS011;20704;51.260;22.558;2024-03-08T01:23:40;45.37;;;18.80;;
34459;SDS011;20704;51.260;22.558;2024-03-08T01:25:44;42.77;;;19.73;;
34459;SDS011;20704;51.260;22.558;2024-03-08T01:27:46;46.40;;;20.73;;
34459;SDS011;20704;51.260;22.558;2024-03-08T01:29:49;44.33;;;18.40;;
34459;SDS011;20704;51.260;22.558;2024-03-08T01:31:52;48.87;;;19.03;;
34459;SDS011;20704;51.260;22.558;2024-03-08T01:33:54;52.30;;;19.93;;
34459;SDS011;20704;51.260;22.558;2024-03-08T01:35:57;42.57;;;20.17;;
34459;SDS011;20704;51.260;22.558;2024-03-08T01:38:00;46.33;;;19.60;;
34459;SDS011;20704;51.260;22.558;2024-03-08T01:40:03;47.93;;;21.43;;
34459;SDS011;20704;51.260;22.558;2024-03-08T01:42:06;44.90;;;18.47;;
34459;SDS011;20704;51.260;22.558;2024-03-08T01:44:09;46.47;;;19.23;;
34459;SDS011;20704;51.260;22.558;2024-03-08T01:46:12;41.13;;;17.83;;
34459;SDS011;20704;51.260;22.558;2024-03-08T01:48:19;40.07;;;18.47;;
34459;SDS011;20704;51.260;22.558;2024-03-08T01:50:25;45.93;;;18.70;;
34459;SDS011;20704;51.260;22.558;2024-03-08T01:52:29;47.10;;;18.87;;
34459;SDS011;20704;51.260;22.558;2024-03-08T01:54:33;56.03;;;21.63;;
34459;SDS011;20704;51.260;22.558;2024-03-08T01:56:37;53.90;;;22.30;;
34459;SDS011;20704;51.260;22.558;2024-03-08T01:58:43;49.20;;;20.93;;
34459;SDS011;20704;51.260;22.558;2024-03-08T02:00:46;49.70;;;21.97;;
34459;SDS011;20704;51.260;22.558;2024-03-08T02:02:53;48.77;;;21.23;;
34459;SDS011;20704;51.260;22.558;2024-03-08T02:04:56;47.30;;;20.60;;
34459;SDS011;20704;51.260;22.558;2024-03-08T02:06:59;56.37;;;22.33;;
34459;SDS011;20704;51.260;22.558;2024-03-08T02:09:02;55.13;;;21.60;;
34459;SDS011;20704;51.260;22.558;2024-03-08T02:11:07;49.70;;;21.03;;
34459;SDS011;20704;51.260;22.558;2024-03-08T02:13:10;50.33;;;21.53;;
34459;SDS011;20704;51.260;22.558;2024-03-08T02:15:13;53.97;;;22.53;;
34459;SDS011;20704;51.260;22.558;2024-03-08T02:17:21;49.80;;;21.50;;
34459;SDS011;20704;51.260;22.558;2024-03-08T02:19:24;48.20;;;22.30;;
34459;SDS011;20704;51.260;22.558;2024-03-08T02:21:27;53.87;;;22.53;;
34459;SDS011;20704;51.260;22.558;2024-03-08T02:23:30;60.53;;;24.70;;
34459;SDS011;20704;51.260;22.558;2024-03-08T02:25:34;60.33;;;24.80;;
34459;SDS011;20704;51.260;22.558;2024-03-08T02:27:38;60.33;;;25.47;;
34459;SDS011;20704;51.260;22.558;2024-03-08T02:29:40;59.50;;;24.33;;
34459;SDS011;20704;51.260;22.558;2024-03-08T02:31:44;57.27;;;25.23;;
34459;SDS011;20704;51.260;22.558;2024-03-08T02:33:47;60.90;;;24.17;;
34459;SDS011;20704;51.260;22.558;2024-03-08T02:35:50;63.83;;;25.77;;
34459;SDS011;20704;51.260;22.558;2024-03-08T02:37:53;59.87;;;25.33;;
34459;SDS011;20704;51.260;22.558;2024-03-08T02:39:57;61.13;;;25.33;;
34459;SDS011;20704;51.260;22.558;2024-03-08T02:42:00;60.73;;;26.40;;
34459;SDS011;20704;51.260;22.558;2024-03-08T02:44:03;62.70;;;27.37;;
34459;SDS011;20704;51.260;22.558;2024-03-08T02:46:06;75.27;;;30.67;;
34459;SDS011;20704;51.260;22.558;2024-03-08T02:48:09;66.87;;;28.13;;
34459;SDS011;20704;51.260;22.558;2024-03-08T02:50:13;65.43;;;27.93;;
34459;SDS011;20704;51.260;22.558;2024-03-08T02:52:17;74.93;;;30.07;;
34459;SDS011;20704;51.260;22.558;2024-03-08T02:54:22;72.03;;;28.27;;
34459;SDS011;20704;51.260;22.558;2024-03-08T02:56:25;76.43;;;31.33;;
34459;SDS011;20704;51.260;22.558;2024-03-08T02:58:28;70.57;;;27.97;;
34459;SDS011;20704;51.260;22.558;2024-03-08T03:00:31;74.03;;;31.00;;
34459;SDS011;20704;51.260;22.558;2024-03-08T03:02:34;69.50;;;28.90;;
34459;SDS011;20704;51.260;22.558;2024-03-08T03:04:39;69.00;;;29.87;;
34459;SDS011;20704;51.260;22.558;2024-03-08T03:06:42;78.47;;;30.20;;
34459;SDS011;20704;51.260;22.558;2024-03-08T03:08:45;70.93;;;29.90;;
34459;SDS011;20704;51.260;22.558;2024-03-08T03:10:50;73.67;;;31.93;;
34459;SDS011;20704;51.260;22.558;2024-03-08T03:12:52;85.50;;;32.50;;
34459;SDS011;20704;51.260;22.558;2024-03-08T03:14:56;84.07;;;32.47;;
34459;SDS011;20704;51.260;22.558;2024-03-08T03:16:58;80.63;;;33.23;;
34459;SDS011;20704;51.260;22.558;2024-03-08T03:19:03;75.33;;;30.63;;
34459;SDS011;20704;51.260;22.558;2024-03-08T03:21:07;83.47;;;31.97;;
34459;SDS011;20704;51.260;22.558;2024-03-08T03:23:09;69.27;;;30.40;;
34459;SDS011;20704;51.260;22.558;2024-03-08T03:25:17;79.47;;;32.10;;
34459;SDS011;20704;51.260;22.558;2024-03-08T03:27:25;72.27;;;31.13;;
34459;SDS011;20704;51.260;22.558;2024-03-08T03:29:28;80.17;;;31.00;;
34459;SDS011;20704;51.260;22.558;2024-03-08T03:31:32;84.27;;;33.13;;
34459;SDS011;20704;51.260;22.558;2024-03-08T03:33:35;71.83;;;31.00;;
34459;SDS011;20704;51.260;22.558;2024-03-08T03:35:39;79.90;;;31.47;;
34459;SDS011;20704;51.260;22.558;2024-03-08T03:37:43;71.73;;;30.03;;
34459;SDS011;20704;51.260;22.558;2024-03-08T03:40:05;69.80;;;28.90;;
34459;SDS011;20704;51.260;22.558;2024-03-08T03:42:07;66.80;;;29.50;;
34459;SDS011;20704;51.260;22.558;2024-03-08T03:44:11;82.03;;;30.30;;
34459;SDS011;20704;51.260;22.558;2024-03-08T03:46:14;67.27;;;28.97;;
34459;SDS011;20704;51.260;22.558;2024-03-08T03:48:17;85.37;;;31.90;;
34459;SDS011;20704;51.260;22.558;2024-03-08T03:50:20;77.47;;;29.57;;
34459;SDS011;20704;51.260;22.558;2024-03-08T03:52:24;79.47;;;31.20;;
34459;SDS011;20704;51.260;22.558;2024-03-08T03:54:26;74.20;;;31.33;;
34459;SDS011;20704;51.260;22.558;2024-03-08T03:56:32;69.33;;;28.13;;
34459;SDS011;20704;51.260;22.558;2024-03-08T03:58:35;75.13;;;29.33;;
34459;SDS011;20704;51.260;22.558;2024-03-08T04:00:38;78.10;;;27.53;;
34459;SDS011;20704;51.260;22.558;2024-03-08T04:02:41;69.50;;;28.87;;
34459;SDS011;20704;51.260;22.558;2024-03-08T04:04:44;65.13;;;26.80;;
34459;SDS011;20704;51.260;22.558;2024-03-08T04:06:47;73.43;;;28.83;;
34459;SDS011;20704;51.260;22.558;2024-03-08T04:08:51;71.23;;;29.73;;
34459;SDS011;20704;51.260;22.558;2024-03-08T04:10:54;66.27;;;28.97;;
34459;SDS011;20704;51.260;22.558;2024-03-08T04:12:57;67.90;;;28.97;;
34459;SDS011;20704;51.260;22.558;2024-03-08T04:14:59;66.10;;;26.83;;
34459;SDS011;20704;51.260;22.558;2024-03-08T04:17:02;59.40;;;24.63;;
34459;SDS011;20704;51.260;22.558;2024-03-08T04:19:05;52.27;;;24.13;;
34459;SDS011;20704;51.260;22.558;2024-03-08T04:21:08;55.80;;;23.27;;
34459;SDS011;20704;51.260;22.558;2024-03-08T04:23:11;53.27;;;23.07;;
34459;SDS011;20704;51.260;22.558;2024-03-08T04:25:14;56.87;;;22.43;;
34459;SDS011;20704;51.260;22.558;2024-03-08T04:27:16;61.83;;;25.23;;
34459;SDS011;20704;51.260;22.558;2024-03-08T04:29:19;53.37;;;24.03;;
34459;SDS011;20704;51.260;22.558;2024-03-08T04:31:23;67.03;;;25.13;;
34459;SDS011;20704;51.260;22.558;2024-03-08T04:33:28;65.93;;;23.37;;
34459;SDS011;20704;51.260;22.558;2024-03-08T04:35:31;55.33;;;22.73;;
34459;SDS011;20704;51.260;22.558;2024-03-08T04:37:34;56.93;;;22.00;;
34459;SDS011;20704;51.260;22.558;2024-03-08T04:39:36;61.30;;;24.23;;
34459;SDS011;20704;51.260;22.558;2024-03-08T04:41:39;54.63;;;21.47;;
34459;SDS011;20704;51.260;22.558;2024-03-08T04:43:42;54.27;;;22.30;;
34459;SDS011;20704;51.260;22.558;2024-03-08T04:45:44;56.33;;;22.17;;
34459;SDS011;20704;51.260;22.558;2024-03-08T04:47:47;50.27;;;22.03;;
34459;SDS011;20704;51.260;22.558;2024-03-08T04:49:50;54.57;;;22.33;;
34459;SDS011;20704;51.260;22.558;2024-03-08T04:51:55;55.37;;;21.97;;
34459;SDS011;20704;51.260;22.558;2024-03-08T04:53:57;56.13;;;21.63;;
34459;SDS011;20704;51.260;22.558;2024-03-08T04:56:01;53.83;;;22.00;;
34459;SDS011;20704;51.260;22.558;2024-03-08T04:58:08;48.80;;;19.10;;
34459;SDS011;20704;51.260;22.558;2024-03-08T05:00:10;46.40;;;20.00;;
34459;SDS011;20704;51.260;22.558;2024-03-08T05:02:13;46.10;;;20.73;;
34459;SDS011;20704;51.260;22.558;2024-03-08T05:04:16;43.00;;;18.90;;
34459;SDS011;20704;51.260;22.558;2024-03-08T05:06:18;44.87;;;20.77;;
34459;SDS011;20704;51.260;22.558;2024-03-08T05:08:22;50.90;;;21.83;;
34459;SDS011;20704;51.260;22.558;2024-03-08T05:10:25;55.10;;;21.97;;
34459;SDS011;20704;51.260;22.558;2024-03-08T05:12:28;46.67;;;19.37;;
34459;SDS011;20704;51.260;22.558;2024-03-08T05:14:30;48.50;;;20.80;;
34459;SDS011;20704;51.260;22.558;2024-03-08T05:16:33;45.70;;;19.10;;
34459;SDS011;20704;51.260;22.558;2024-03-08T05:18:35;48.97;;;19.40;;
34459;SDS011;20704;51.260;22.558;2024-03-08T05:20:38;45.77;;;19.30;;
34459;SDS011;20704;51.260;22.558;2024-03-08T05:22:43;48.40;;;19.87;;
34459;SDS011;20704;51.260;22.558;2024-03-08T05:24:45;50.23;;;21.33;;
34459;SDS011;20704;51.260;22.558;2024-03-08T05:26:48;43.80;;;19.90;;
34459;SDS011;20704;51.260;22.558;2024-03-08T05:28:52;52.13;;;22.00;;
34459;SDS011;20704;51.260;22.558;2024-03-08T05:30:55;46.60;;;19.70;;
34459;SDS011;20704;51.260;22.558;2024-03-08T05:32:58;39.33;;;18.53;;
34459;SDS011;20704;51.260;22.558;2024-03-08T05:35:02;51.50;;;21.13;;
34459;SDS011;20704;51.260;22.558;2024-03-08T05:37:09;37.80;;;19.10;;
34459;SDS011;20704;51.260;22.558;2024-03-08T05:39:12;39.17;;;18.35;;
34459;SDS011;20704;51.260;22.558;2024-03-08T05:41:16;36.30;;;17.23;;
34459;SDS011;20704;51.260;22.558;2024-03-08T05:43:20;38.20;;;18.38;;
34459;SDS011;20704;51.260;22.558;2024-03-08T05:45:22;36.17;;;18.15;;
34459;SDS011;20704;51.260;22.558;2024-03-08T05:47:26;33.75;;;18.40;;
34459;SDS011;20704;51.260;22.558;2024-03-08T05:49:32;32.05;;;17.63;;
34459;SDS011;20704;51.260;22.558;2024-03-08T05:51:36;38.95;;;18.33;;
34459;SDS011;20704;51.260;22.558;2024-03-08T05:53:40;39.30;;;18.33;;
34459;SDS011;20704;51.260;22.558;2024-03-08T05:55:43;37.75;;;19.63;;
34459;SDS011;20704;51.260;22.558;2024-03-08T05:57:56;32.20;;;16.98;;
34459;SDS011;20704;51.260;22.558;2024-03-08T05:59:59;31.20;;;17.83;;
34459;SDS011;20704;51.260;22.558;2024-03-08T06:02:02;34.78;;;18.25;;
34459;SDS011;20704;51.260;22.558;2024-03-08T06:04:05;37.63;;;20.50;;
34459;SDS011;20704;51.260;22.558;2024-03-08T06:06:08;34.95;;;17.65;;
34459;SDS011;20704;51.260;22.558;2024-03-08T06:08:11;32.03;;;18.10;;
34459;SDS011;20704;51.260;22.558;2024-03-08T06:10:16;40.13;;;20.60;;
34459;SDS011;20704;51.260;22.558;2024-03-08T06:12:19;36.17;;;20.33;;
34459;SDS011;20704;51.260;22.558;2024-03-08T06:14:22;36.53;;;21.42;;
34459;SDS011;20704;51.260;22.558;2024-03-08T06:16:26;41.30;;;20.48;;
34459;SDS011;20704;51.260;22.558;2024-03-08T06:18:32;36.58;;;22.50;;
34459;SDS011;20704;51.260;22.558;2024-03-08T06:20:44;42.10;;;22.48;;
34459;SDS011;20704;51.260;22.558;2024-03-08T06:22:47;35.85;;;22.38;;
34459;SDS011;20704;51.260;22.558;2024-03-08T06:24:51;38.83;;;22.17;;
34459;SDS011;20704;51.260;22.558;2024-03-08T06:26:55;35.53;;;21.40;;
34459;SDS011;20704;51.260;22.558;2024-03-08T06:28:59;36.58;;;21.42;;
34459;SDS011;20704;51.260;22.558;2024-03-08T06:31:02;39.90;;;22.65;;
34459;SDS011;20704;51.260;22.558;2024-03-08T06:33:05;39.22;;;21.77;;
34459;SDS011;20704;51.260;22.558;2024-03-08T06:35:08;34.40;;;21.63;;
34459;SDS011;20704;51.260;22.558;2024-03-08T06:37:12;36.85;;;20.63;;
34459;SDS011;20704;51.260;22.558;2024-03-08T06:39:16;34.92;;;20.50;;
34459;SDS011;20704;51.260;22.558;2024-03-08T06:41:19;31.60;;;19.92;;
34459;SDS011;20704;51.260;22.558;2024-03-08T06:43:24;39.47;;;21.67;;
34459;SDS011;20704;51.260;22.558;2024-03-08T06:45:34;34.08;;;20.92;;
34459;SDS011;20704;51.260;22.558;2024-03-08T06:47:38;33.78;;;22.45;;
34459;SDS011;20704;51.260;22.558;2024-03-08T06:49:43;32.35;;;21.13;;
34459;SDS011;20704;51.260;22.558;2024-03-08T06:51:47;35.78;;;21.80;;
34459;SDS011;20704;51.260;22.558;2024-03-08T06:53:49;35.05;;;21.98;;
34459;SDS011;20704;51.260;22.558;2024-03-08T06:55:54;31.70;;;21.58;;
34459;SDS011;20704;51.260;22.558;2024-03-08T06:57:56;31.63;;;20.88;;
34459;SDS011;20704;51.260;22.558;2024-03-08T06:59:59;30.65;;;19.25;;
34459;SDS011;20704;51.260;22.558;2024-03-08T07:02:03;36.28;;;21.83;;
34459;SDS011;20704;51.260;22.558;2024-03-08T07:04:06;33.60;;;21.02;;
34459;SDS011;20704;51.260;22.558;2024-03-08T07:06:09;34.30;;;20.52;;
34459;SDS011;20704;51.260;22.558;2024-03-08T07:08:13;31.67;;;20.88;;
34459;SDS011;20704;51.260;22.558;2024-03-08T07:10:16;31.25;;;21.63;;
34459;SDS011;20704;51.260;22.558;2024-03-08T07:12:18;31.90;;;20.90;;
34459;SDS011;20704;51.260;22.558;2024-03-08T07:14:23;29.98;;;20.17;;
34459;SDS011;20704;51.260;22.558;2024-03-08T07:16:25;33.38;;;19.95;;
34459;SDS011;20704;51.260;22.558;2024-03-08T07:18:28;29.88;;;17.95;;
34459;SDS011;20704;51.260;22.558;2024-03-08T07:20:32;30.15;;;19.35;;
34459;SDS011;20704;51.260;22.558;2024-03-08T07:22:35;30.67;;;20.30;;
34459;SDS011;20704;51.260;22.558;2024-03-08T07:24:39;34.97;;;19.48;;
34459;SDS011;20704;51.260;22.558;2024-03-08T07:26:58;34.00;;;19.05;;
34459;SDS011;20704;51.260;22.558;2024-03-08T07:29:01;29.27;;;17.48;;
34459;SDS011;20704;51.260;22.558;2024-03-08T07:31:04;33.30;;;18.30;;
34459;SDS011;20704;51.260;22.558;2024-03-08T07:33:27;29.08;;;18.27;;
34459;SDS011;20704;51.260;22.558;2024-03-08T07:35:30;32.42;;;19.45;;
34459;SDS011;20704;51.260;22.558;2024-03-08T07:37:33;34.58;;;17.92;;
34459;SDS011;20704;51.260;22.558;2024-03-08T07:39:36;30.08;;;19.20;;
34459;SDS011;20704;51.260;22.558;2024-03-08T07:41:40;30.65;;;18.60;;
34459;SDS011;20704;51.260;22.558;2024-03-08T07:43:43;32.53;;;18.50;;
34459;SDS011;20704;51.260;22.558;2024-03-08T07:45:46;35.67;;;20.60;;
34459;SDS011;20704;51.260;22.558;2024-03-08T07:47:49;29.50;;;18.48;;
34459;SDS011;20704;51.260;22.558;2024-03-08T07:49:52;36.30;;;18.52;;
34459;SDS011;20704;51.260;22.558;2024-03-08T07:51:56;34.03;;;19.63;;
34459;SDS011;20704;51.260;22.558;2024-03-08T07:53:59;37.00;;;19.23;;
34459;SDS011;20704;51.260;22.558;2024-03-08T07:56:02;34.08;;;18.20;;
34459;SDS011;20704;51.260;22.558;2024-03-08T07:58:06;32.72;;;17.30;;
34459;SDS011;20704;51.260;22.558;2024-03-08T08:00:12;37.63;;;19.05;;
34459;SDS011;20704;51.260;22.558;2024-03-08T08:02:19;31.92;;;17.92;;
34459;SDS011;20704;51.260;22.558;2024-03-08T08:04:22;33.55;;;16.50;;
34459;SDS011;20704;51.260;22.558;2024-03-08T08:06:27;33.65;;;17.90;;
34459;SDS011;20704;51.260;22.558;2024-03-08T08:08:30;32.17;;;17.75;;
34459;SDS011;20704;51.260;22.558;2024-03-08T08:10:34;33.28;;;17.38;;
34459;SDS011;20704;51.260;22.558;2024-03-08T08:12:36;34.63;;;18.45;;
34459;SDS011;20704;51.260;22.558;2024-03-08T08:14:39;42.55;;;21.73;;
34459;SDS011;20704;51.260;22.558;2024-03-08T08:16:43;34.15;;;20.88;;
34459;SDS011;20704;51.260;22.558;2024-03-08T08:18:46;40.00;;;22.40;;
34459;SDS011;20704;51.260;22.558;2024-03-08T08:20:51;43.65;;;22.05;;
34459;SDS011;20704;51.260;22.558;2024-03-08T08:22:54;39.20;;;21.50;;
34459;SDS011;20704;51.260;22.558;2024-03-08T08:24:57;36.95;;;20.65;;
34459;SDS011;20704;51.260;22.558;2024-03-08T08:26:59;37.30;;;19.08;;
34459;SDS011;20704;51.260;22.558;2024-03-08T08:29:02;34.55;;;19.75;;
34459;SDS011;20704;51.260;22.558;2024-03-08T08:31:06;43.90;;;19.65;;
34459;SDS011;20704;51.260;22.558;2024-03-08T08:33:10;33.17;;;19.70;;
34459;SDS011;20704;51.260;22.558;2024-03-08T08:35:13;39.22;;;20.50;;
34459;SDS011;20704;51.260;22.558;2024-03-08T08:37:16;40.53;;;19.20;;
34459;SDS011;20704;51.260;22.558;2024-03-08T08:39:21;33.72;;;17.83;;
34459;SDS011;20704;51.260;22.558;2024-03-08T08:41:24;35.63;;;19.42;;
34459;SDS011;20704;51.260;22.558;2024-03-08T08:43:28;32.15;;;16.83;;
34459;SDS011;20704;51.260;22.558;2024-03-08T08:45:31;32.80;;;18.90;;
34459;SDS011;20704;51.260;22.558;2024-03-08T08:47:34;36.67;;;17.35;;
34459;SDS011;20704;51.260;22.558;2024-03-08T08:49:37;37.03;;;17.27;;
34459;SDS011;20704;51.260;22.558;2024-03-08T08:51:40;35.90;;;17.58;;
34459;SDS011;20704;51.260;22.558;2024-03-08T08:53:43;40.28;;;19.63;;
34459;SDS011;20704;51.260;22.558;2024-03-08T08:55:47;35.00;;;18.50;;
34459;SDS011;20704;51.260;22.558;2024-03-08T08:57:50;32.50;;;15.77;;
34459;SDS011;20704;51.260;22.558;2024-03-08T08:59:53;28.58;;;13.98;;
34459;SDS011;20704;51.260;22.558;2024-03-08T09:01:57;25.83;;;13.65;;
34459;SDS011;20704;51.260;22.558;2024-03-08T09:03:59;23.00;;;12.70;;
34459;SDS011;20704;51.260;22.558;2024-03-08T09:06:08;27.38;;;13.60;;
34459;SDS011;20704;51.260;22.558;2024-03-08T09:08:13;35.33;;;14.77;;
34459;SDS011;20704;51.260;22.558;2024-03-08T09:10:16;27.63;;;14.27;;
34459;SDS011;20704;51.260;22.558;2024-03-08T09:12:20;25.25;;;13.07;;
34459;SDS011;20704;51.260;22.558;2024-03-08T09:14:23;23.83;;;13.07;;
34459;SDS011;20704;51.260;22.558;2024-03-08T09:16:27;32.00;;;13.73;;
34459;SDS011;20704;51.260;22.558;2024-03-08T09:18:30;30.40;;;14.07;;
34459;SDS011;20704;51.260;22.558;2024-03-08T09:20:33;24.17;;;13.45;;
34459;SDS011;20704;51.260;22.558;2024-03-08T09:22:37;24.55;;;12.13;;
34459;SDS011;20704;51.260;22.558;2024-03-08T09:24:40;27.48;;;14.18;;
34459;SDS011;20704;51.260;22.558;2024-03-08T09:26:43;27.95;;;13.57;;
34459;SDS011;20704;51.260;22.558;2024-03-08T09:28:46;23.75;;;12.23;;
34459;SDS011;20704;51.260;22.558;2024-03-08T09:30:49;23.98;;;13.13;;
34459;SDS011;20704;51.260;22.558;2024-03-08T09:33:00;29.52;;;13.95;;
34459;SDS011;20704;51.260;22.558;2024-03-08T09:35:04;22.80;;;12.23;;
34459;SDS011;20704;51.260;22.558;2024-03-08T09:37:10;25.98;;;13.10;;
34459;SDS011;20704;51.260;22.558;2024-03-08T09:39:13;23.38;;;12.80;;
34459;SDS011;20704;51.260;22.558;2024-03-08T09:41:18;28.90;;;13.23;;
34459;SDS011;20704;51.260;22.558;2024-03-08T09:43:21;23.55;;;11.27;;
34459;SDS011;20704;51.260;22.558;2024-03-08T09:45:26;23.58;;;12.80;;
34459;SDS011;20704;51.260;22.558;2024-03-08T09:47:29;30.60;;;14.07;;
34459;SDS011;20704;51.260;22.558;2024-03-08T09:49:35;27.90;;;12.82;;
34459;SDS011;20704;51.260;22.558;2024-03-08T09:51:39;21.85;;;11.88;;
34459;SDS011;20704;51.260;22.558;2024-03-08T09:53:43;21.73;;;12.93;;
34459;SDS011;20704;51.260;22.558;2024-03-08T09:55:45;20.52;;;12.35;;
34459;SDS011;20704;51.260;22.558;2024-03-08T09:57:51;20.42;;;11.32;;
34459;SDS011;20704;51.260;22.558;2024-03-08T10:00:12;19.25;;;10.85;;
34459;SDS011;20704;51.260;22.558;2024-03-08T10:02:26;19.55;;;9.98;;
34459;SDS011;20704;51.260;22.558;2024-03-08T10:04:29;18.73;;;10.45;;
34459;SDS011;20704;51.260;22.558;2024-03-08T10:06:35;21.65;;;9.05;;
34459;SDS011;20704;51.260;22.558;2024-03-08T10:08:38;17.75;;;8.88;;
34459;SDS011;20704;51.260;22.558;2024-03-08T10:10:43;15.98;;;8.60;;
34459;SDS011;20704;51.260;22.558;2024-03-08T10:12:46;18.83;;;9.70;;
34459;SDS011;20704;51.260;22.558;2024-03-08T10:14:48;16.10;;;7.78;;
34459;SDS011;20704;51.260;22.558;2024-03-08T10:16:51;17.35;;;7.65;;
34459;SDS011;20704;51.260;22.558;2024-03-08T10:18:56;15.52;;;8.23;;
34459;SDS011;20704;51.260;22.558;2024-03-08T10:21:02;14.43;;;7.65;;
34459;SDS011;20704;51.260;22.558;2024-03-08T10:23:09;15.93;;;8.45;;
34459;SDS011;20704;51.260;22.558;2024-03-08T10:25:13;16.85;;;8.00;;
34459;SDS011;20704;51.260;22.558;2024-03-08T10:27:19;12.85;;;7.13;;
34459;SDS011;20704;51.260;22.558;2024-03-08T10:29:22;13.95;;;8.48;;
34459;SDS011;20704;51.260;22.558;2024-03-08T10:31:24;14.18;;;7.88;;
34459;SDS011;20704;51.260;22.558;2024-03-08T10:33:27;17.88;;;8.02;;
34459;SDS011;20704;51.260;22.558;2024-03-08T10:35:30;14.43;;;7.90;;
34459;SDS011;20704;51.260;22.558;2024-03-08T10:37:33;17.02;;;8.35;;
34459;SDS011;20704;51.260;22.558;2024-03-08T10:40:03;24.70;;;11.38;;
34459;SDS011;20704;51.260;22.558;2024-03-08T10:42:14;20.83;;;10.82;;
34459;SDS011;20704;51.260;22.558;2024-03-08T10:48:57;20.42;;;10.95;;
34459;SDS011;20704;51.260;22.558;2024-03-08T10:51:04;20.38;;;10.68;;
34459;SDS011;20704;51.260;22.558;2024-03-08T10:53:09;17.25;;;8.63;;
34459;SDS011;20704;51.260;22.558;2024-03-08T10:55:13;20.60;;;9.38;;
34459;SDS011;20704;51.260;22.558;2024-03-08T10:57:18;17.15;;;8.60;;
34459;SDS011;20704;51.260;22.558;2024-03-08T10:59:23;16.23;;;8.20;;
34459;SDS011;20704;51.260;22.558;2024-03-08T11:01:28;12.80;;;7.50;;
34459;SDS011;20704;51.260;22.558;2024-03-08T11:05:44;18.98;;;8.23;;
34459;SDS011;20704;51.260;22.558;2024-03-08T11:07:49;14.63;;;7.90;;
34459;SDS011;20704;51.260;22.558;2024-03-08T11:09:52;13.75;;;6.95;;
34459;SDS011;20704;51.260;22.558;2024-03-08T11:14:45;18.08;;;8.10;;
34459;SDS011;20704;51.260;22.558;2024-03-08T11:16:52;18.48;;;9.25;;
34459;SDS011;20704;51.260;22.558;2024-03-08T11:19:44;18.20;;;8.85;;
34459;SDS011;20704;51.260;22.558;2024-03-08T11:21:17;16.17;;;8.70;;
34459;SDS011;20704;51.260;22.558;2024-03-08T11:23:22;16.83;;;7.93;;
34459;SDS011;20704;51.260;22.558;2024-03-08T11:25:38;17.23;;;9.30;;
34459;SDS011;20704;51.260;22.558;2024-03-08T11:27:52;22.67;;;8.95;;
34459;SDS011;20704;51.260;22.558;2024-03-08T11:30:07;17.27;;;8.27;;
34459;SDS011;20704;51.260;22.558;2024-03-08T11:32:19;14.27;;;7.80;;
34459;SDS011;20704;51.260;22.558;2024-03-08T11:34:24;14.48;;;7.50;;
34459;SDS011;20704;51.260;22.558;2024-03-08T11:36:28;15.95;;;8.60;;
34459;SDS011;20704;51.260;22.558;2024-03-08T11:38:32;17.52;;;8.82;;
34459;SDS011;20704;51.260;22.558;2024-03-08T11:40:35;16.50;;;8.50;;
34459;SDS011;20704;51.260;22.558;2024-03-08T11:42:38;11.52;;;6.95;;
34459;SDS011;20704;51.260;22.558;2024-03-08T11:44:41;18.13;;;8.07;;
34459;SDS011;20704;51.260;22.558;2024-03-08T11:46:46;15.00;;;7.82;;
34459;SDS011;20704;51.260;22.558;2024-03-08T11:48:49;14.25;;;8.15;;
34459;SDS011;20704;51.260;22.558;2024-03-08T11:50:59;16.48;;;8.23;;
34459;SDS011;20704;51.260;22.558;2024-03-08T11:53:03;14.27;;;8.00;;
34459;SDS011;20704;51.260;22.558;2024-03-08T11:55:07;14.05;;;7.57;;
34459;SDS011;20704;51.260;22.558;2024-03-08T11:57:10;16.25;;;8.60;;
34459;SDS011;20704;51.260;22.558;2024-03-08T11:59:13;14.60;;;7.40;;
34459;SDS011;20704;51.260;22.558;2024-03-08T12:01:16;12.52;;;7.00;;
34459;SDS011;20704;51.260;22.558;2024-03-08T12:03:19;14.13;;;6.85;;
34459;SDS011;20704;51.260;22.558;2024-03-08T12:05:22;12.23;;;6.75;;
34459;SDS011;20704;51.260;22.558;2024-03-08T12:07:25;13.65;;;7.35;;